Time;durP1;ratioP1;P1;durP2;ratioP2;P2;SDS_P1;SDS_P2;PMS_P1;PMS_P2;Temp;Humidity;BMP_temperature;BMP_pressure;BME280_temperature;BME280_humidity;BME280_pressure;Samples;Min_cycle;Max_cycle;Signal;HPM_P1;HPM_P2
2021/07/26 00:01:34;;;;;;;3.17;2.42;;;24.70;99.90;;;;;;5052995;28;20029;-66
2021/07/26 00:04:00;;;;;;;3.67;2.70;;;24.70;99.90;;;;;;5052641;28;20366;-66
2021/07/26 00:06:26;;;;;;;3.05;2.63;;;24.60;99.90;;;;;;5052832;28;20032;-66
2021/07/26 00:08:51;;;;;;;2.95;2.65;;;24.60;99.90;;;;;;5052778;28;20442;-66
2021/07/26 00:11:17;;;;;;;2.75;2.55;;;24.60;99.90;;;;;;5053106;28;20025;-66
2021/07/26 00:13:43;;;;;;;4.00;2.78;;;24.60;99.90;;;;;;5052828;28;20492;-66
2021/07/26 00:16:08;;;;;;;2.78;2.53;;;24.60;99.90;;;;;;5052537;28;20432;-66
2021/07/26 00:18:34;;;;;;;2.70;2.10;;;24.50;99.90;;;;;;5052391;28;20041;-66
2021/07/26 00:21:00;;;;;;;3.35;2.60;;;24.50;99.90;;;;;;5052507;28;20021;-68
2021/07/26 00:23:27;;;;;;;3.95;2.50;;;24.50;99.90;;;;;;5052031;28;20029;-67
2021/07/26 00:25:53;;;;;;;2.80;2.45;;;24.50;99.90;;;;;;5052304;28;20155;-66
2021/07/26 00:28:19;;;;;;;2.80;2.42;;;24.50;99.90;;;;;;5052820;28;20021;-66
2021/07/26 00:30:45;;;;;;;3.22;2.60;;;24.50;99.90;;;;;;5052708;28;20032;-66
2021/07/26 00:33:57;;;;;;;2.70;2.50;;;24.50;99.90;;;;;;5052240;28;20041;-66
2021/07/26 00:36:23;;;;;;;3.50;2.60;;;24.40;99.90;;;;;;5046991;28;20033;-66
2021/07/26 00:38:49;;;;;;;3.67;2.75;;;24.40;99.90;;;;;;5051276;28;20032;-67
2021/07/26 00:41:16;;;;;;;2.67;2.40;;;24.40;99.90;;;;;;5052205;28;20021;-66
2021/07/26 00:43:42;;;;;;;3.17;2.63;;;24.40;99.90;;;;;;5051996;28;20045;-66
2021/07/26 00:46:07;;;;;;;3.22;2.60;;;24.40;99.90;;;;;;5051981;28;20363;-68
2021/07/26 00:48:33;;;;;;;2.83;2.58;;;24.40;99.90;;;;;;5052126;28;20112;-66
2021/07/26 00:50:59;;;;;;;3.53;2.70;;;24.40;99.90;;;;;;5051809;28;20025;-66
2021/07/26 00:53:24;;;;;;;3.05;2.50;;;24.30;99.90;;;;;;5052170;28;20036;-67
2021/07/26 00:55:50;;;;;;;2.78;2.38;;;24.40;99.90;;;;;;5051706;28;20025;-66
2021/07/26 00:58:16;;;;;;;2.55;2.25;;;24.30;99.90;;;;;;5051044;28;20111;-66
2021/07/26 01:00:42;;;;;;;3.20;2.33;;;24.30;99.90;;;;;;5051894;28;20059;-66
2021/07/26 01:03:08;;;;;;;3.08;2.53;;;24.30;99.90;;;;;;5051620;28;20033;-66
2021/07/26 01:05:34;;;;;;;2.58;2.30;;;24.30;99.90;;;;;;5051721;28;20029;-66
2021/07/26 01:08:00;;;;;;;2.40;2.20;;;24.30;99.90;;;;;;5051631;28;20043;-66
2021/07/26 01:10:26;;;;;;;3.13;2.60;;;24.20;99.90;;;;;;5051592;28;20104;-65
2021/07/26 01:12:51;;;;;;;2.92;2.30;;;24.20;99.90;;;;;;5051448;28;20509;-66
2021/07/26 01:15:18;;;;;;;2.50;2.30;;;24.30;99.90;;;;;;5051926;28;20290;-66
2021/07/26 01:18:21;;;;;;;3.50;2.45;;;24.20;99.90;;;;;;5051262;28;20032;-67
2021/07/26 01:20:52;;;;;;;2.85;2.17;;;24.20;99.90;;;;;;5051771;28;20032;-67
2021/07/26 01:23:18;;;;;;;2.55;2.20;;;24.20;99.90;;;;;;5051947;28;20033;-68
2021/07/26 01:25:43;;;;;;;2.65;2.30;;;24.20;99.90;;;;;;5051546;28;20443;-66
2021/07/26 01:28:12;;;;;;;5.13;2.38;;;24.20;99.90;;;;;;5051247;28;20419;-66
2021/07/26 01:30:37;;;;;;;3.60;2.42;;;24.20;99.90;;;;;;5051501;28;20029;-66
2021/07/26 01:33:07;;;;;;;3.08;2.33;;;24.10;99.90;;;;;;5051030;28;20029;-66
2021/07/26 01:35:33;;;;;;;2.65;2.08;;;24.20;99.90;;;;;;5050783;28;20078;-67
2021/07/26 01:37:58;;;;;;;2.40;2.15;;;24.10;99.90;;;;;;5051109;28;20028;-68
2021/07/26 01:40:24;;;;;;;4.97;2.50;;;24.10;99.90;;;;;;5051318;28;20025;-68
2021/07/26 01:42:59;;;;;;;2.90;2.40;;;24.10;99.90;;;;;;5051187;28;20066;-66
2021/07/26 01:45:25;;;;;;;2.85;2.40;;;24.10;99.90;;;;;;5051328;28;20401;-66
2021/07/26 01:47:55;;;;;;;4.07;2.63;;;24.10;99.90;;;;;;5050951;28;20028;-66
2021/07/26 01:50:21;;;;;;;3.72;2.30;;;24.10;99.90;;;;;;5051275;28;20020;-66
2021/07/26 01:52:47;;;;;;;5.05;2.28;;;24.10;99.90;;;;;;5051606;28;20491;-66
2021/07/26 01:55:14;;;;;;;3.85;2.35;;;24.10;99.90;;;;;;5050705;28;20035;-67
2021/07/26 01:57:39;;;;;;;2.53;2.08;;;24.10;99.90;;;;;;5051181;28;20057;-67
2021/07/26 02:00:06;;;;;;;2.65;2.40;;;24.10;99.90;;;;;;5050936;28;20079;-66
2021/07/26 02:02:32;;;;;;;3.08;2.30;;;24.10;99.90;;;;;;5051104;28;20473;-66
2021/07/26 02:05:01;;;;;;;3.33;2.40;;;24.10;99.90;;;;;;5050793;28;20091;-66
2021/07/26 02:07:26;;;;;;;2.78;2.50;;;24.10;99.90;;;;;;5051286;28;20023;-68
2021/07/26 02:09:52;;;;;;;3.13;2.15;;;24.10;99.90;;;;;;5050862;28;20108;-66
2021/07/26 02:12:18;;;;;;;3.35;2.72;;;24.00;99.90;;;;;;5051480;28;20025;-68
2021/07/26 02:14:44;;;;;;;3.03;2.65;;;24.00;99.90;;;;;;5051062;28;20032;-68
2021/07/26 02:17:09;;;;;;;2.50;2.10;;;24.00;99.90;;;;;;5050708;28;20532;-66
2021/07/26 02:19:35;;;;;;;2.83;2.45;;;24.00;99.90;;;;;;5051002;28;20036;-66
2021/07/26 02:22:01;;;;;;;2.80;2.53;;;24.00;99.90;;;;;;5050898;28;20108;-66
2021/07/26 02:24:26;;;;;;;3.00;2.50;;;24.00;99.90;;;;;;5050808;28;20545;-66
2021/07/26 02:26:52;;;;;;;2.60;2.30;;;24.00;99.90;;;;;;5050704;28;20052;-67
2021/07/26 02:29:18;;;;;;;3.03;2.25;;;24.00;99.90;;;;;;5049981;28;20083;-66
2021/07/26 02:31:44;;;;;;;3.13;2.30;;;24.00;99.90;;;;;;5050799;28;20032;-66
2021/07/26 02:34:10;;;;;;;3.72;2.70;;;24.00;99.90;;;;;;5049222;28;20601;-66
2021/07/26 02:36:38;;;;;;;4.15;2.70;;;23.90;99.90;;;;;;5050931;28;20111;-67
2021/07/26 02:39:04;;;;;;;3.65;2.40;;;24.00;99.90;;;;;;5049190;28;20032;-66
2021/07/26 02:41:29;;;;;;;3.10;2.08;;;23.90;99.90;;;;;;5050434;28;20025;-67
2021/07/26 02:43:55;;;;;;;4.03;2.45;;;23.90;99.90;;;;;;5050594;28;20040;-67
2021/07/26 02:46:21;;;;;;;2.85;2.55;;;23.90;99.90;;;;;;5053100;28;20032;-66
2021/07/26 02:48:47;;;;;;;3.47;2.42;;;23.90;99.90;;;;;;5054759;28;20060;-66
2021/07/26 02:51:13;;;;;;;4.13;2.72;;;23.90;99.90;;;;;;5054178;28;20032;-66
2021/07/26 02:53:39;;;;;;;3.45;2.67;;;23.90;99.90;;;;;;5054410;28;20029;-68
2021/07/26 02:56:08;;;;;;;3.25;2.78;;;23.90;99.90;;;;;;5054073;28;20028;-66
2021/07/26 02:58:34;;;;;;;3.92;3.00;;;23.90;99.90;;;;;;5053045;28;20029;-67
2021/07/26 03:01:00;;;;;;;4.50;3.15;;;23.90;99.90;;;;;;5054129;28;20071;-66
2021/07/26 03:03:25;;;;;;;5.50;2.42;;;23.90;99.90;;;;;;5053975;28;20450;-66
2021/07/26 03:05:51;;;;;;;3.55;2.65;;;23.90;99.90;;;;;;5053773;28;20091;-67
2021/07/26 03:08:16;;;;;;;5.32;2.88;;;23.90;99.90;;;;;;5054374;28;20100;-66
2021/07/26 03:10:42;;;;;;;3.20;2.90;;;23.90;99.90;;;;;;5053962;28;20029;-67
2021/07/26 03:13:08;;;;;;;3.17;2.67;;;23.90;99.90;;;;;;5053772;28;20051;-66
2021/07/26 03:15:36;;;;;;;3.20;2.70;;;23.90;99.90;;;;;;5053502;28;20032;-66
2021/07/26 03:18:02;;;;;;;4.35;2.60;;;23.90;99.90;;;;;;5053774;28;20031;-66
2021/07/26 03:20:27;;;;;;;3.70;2.88;;;23.90;99.90;;;;;;5053829;28;20025;-67
2021/07/26 03:23:08;;;;;;;5.03;2.60;;;23.90;99.90;;;;;;5053421;28;20033;-66
2021/07/26 03:25:39;;;;;;;4.53;2.80;;;23.90;99.90;;;;;;5044027;28;20029;-67
2021/07/26 03:28:05;;;;;;;3.42;2.60;;;23.80;99.90;;;;;;5053496;28;20354;-66
2021/07/26 03:30:31;;;;;;;3.22;2.60;;;23.90;99.90;;;;;;5053396;28;20025;-66
2021/07/26 03:32:57;;;;;;;3.40;2.60;;;23.90;99.90;;;;;;5053534;28;20024;-67
2021/07/26 03:35:24;;;;;;;4.32;2.75;;;23.90;99.90;;;;;;5053315;28;20436;-67
2021/07/26 03:37:51;;;;;;;2.90;2.60;;;23.80;99.90;;;;;;5053863;28;20484;-67
2021/07/26 03:40:18;;;;;;;3.72;2.40;;;23.80;99.90;;;;;;5053708;28;20112;-67
2021/07/26 03:42:44;;;;;;;4.40;2.72;;;23.80;99.90;;;;;;5053417;28;20021;-67
2021/07/26 03:45:13;;;;;;;3.30;2.65;;;23.80;99.90;;;;;;5053571;28;20174;-67
2021/07/26 03:47:40;;;;;;;3.00;2.33;;;23.80;99.90;;;;;;5053282;28;20027;-67
2021/07/26 03:50:07;;;;;;;2.63;2.25;;;23.80;99.90;;;;;;5053025;28;20489;-67
2021/07/26 03:52:44;;;;;;;4.43;2.28;;;23.80;99.90;;;;;;5052941;28;20037;-67
2021/07/26 03:55:10;;;;;;;2.63;2.20;;;23.80;99.90;;;;;;5053220;28;20096;-68
2021/07/26 03:57:35;;;;;;;3.25;2.58;;;23.80;99.90;;;;;;5052105;28;20025;-67
2021/07/26 04:00:01;;;;;;;3.60;2.60;;;23.80;99.90;;;;;;5053101;28;20025;-67
2021/07/26 04:02:27;;;;;;;3.08;2.38;;;23.80;99.90;;;;;;5052819;28;20444;-67
2021/07/26 04:04:53;;;;;;;3.20;2.40;;;23.80;99.90;;;;;;5052556;28;20370;-67
2021/07/26 04:07:23;;;;;;;2.50;2.30;;;23.80;99.90;;;;;;5051686;28;20035;-67
2021/07/26 04:09:55;;;;;;;4.22;2.25;;;23.80;99.90;;;;;;5053418;28;20033;-67
2021/07/26 04:12:24;;;;;;;3.38;2.33;;;23.80;99.90;;;;;;5052858;28;20053;-67
2021/07/26 04:14:50;;;;;;;2.78;2.30;;;23.80;99.90;;;;;;5053036;28;20033;-67
2021/07/26 04:17:15;;;;;;;3.50;2.80;;;23.80;99.90;;;;;;5052442;28;20025;-67
2021/07/26 04:19:41;;;;;;;3.35;2.33;;;23.80;99.90;;;;;;5052724;28;20029;-67
2021/07/26 04:22:09;;;;;;;2.90;2.58;;;23.80;99.90;;;;;;5052608;28;20025;-67
2021/07/26 04:24:35;;;;;;;2.60;2.40;;;23.80;99.90;;;;;;5052281;28;20040;-67
2021/07/26 04:27:00;;;;;;;2.72;2.35;;;23.80;99.90;;;;;;5052602;28;20489;-67
2021/07/26 04:29:26;;;;;;;3.13;2.15;;;23.80;99.90;;;;;;5052212;28;20040;-67
2021/07/26 04:31:51;;;;;;;2.55;2.17;;;23.80;99.90;;;;;;5052721;28;20476;-67
2021/07/26 04:34:17;;;;;;;2.60;2.40;;;23.80;99.90;;;;;;5052315;28;20052;-67
2021/07/26 04:36:43;;;;;;;2.67;2.20;;;23.80;99.90;;;;;;5051020;28;20025;-67
2021/07/26 04:39:09;;;;;;;3.50;2.55;;;23.80;99.90;;;;;;5052312;28;20025;-67
2021/07/26 04:41:35;;;;;;;2.83;2.40;;;23.80;99.90;;;;;;5052082;28;20031;-67
2021/07/26 04:44:01;;;;;;;3.55;2.30;;;23.70;99.90;;;;;;5052036;28;20411;-67
2021/07/26 04:46:27;;;;;;;3.70;2.50;;;23.80;99.90;;;;;;5051894;28;20384;-67
2021/07/26 04:48:52;;;;;;;2.78;2.42;;;23.80;99.90;;;;;;5052031;28;20081;-67
2021/07/26 04:51:18;;;;;;;3.17;2.53;;;23.70;99.90;;;;;;5052117;28;20028;-68
2021/07/26 04:53:44;;;;;;;3.13;2.50;;;23.70;99.90;;;;;;5052090;28;20373;-67
2021/07/26 04:56:09;;;;;;;2.50;2.25;;;23.80;99.90;;;;;;5052034;28;20044;-67
2021/07/26 04:58:35;;;;;;;3.40;2.20;;;23.70;99.90;;;;;;5051957;28;20092;-67
2021/07/26 05:01:01;;;;;;;2.72;2.45;;;23.80;99.90;;;;;;5051632;28;20412;-67
2021/07/26 05:03:26;;;;;;;3.88;2.55;;;23.80;99.90;;;;;;5051632;28;20032;-67
2021/07/26 05:05:52;;;;;;;3.00;2.60;;;23.80;99.90;;;;;;5051967;28;20086;-67
2021/07/26 05:08:18;;;;;;;3.28;2.42;;;23.80;99.90;;;;;;5051370;28;20082;-67
2021/07/26 05:10:47;;;;;;;2.72;2.50;;;23.80;99.90;;;;;;5051814;28;20466;-67
2021/07/26 05:13:16;;;;;;;2.60;2.17;;;23.80;99.90;;;;;;5051264;28;20465;-67
2021/07/26 05:15:42;;;;;;;2.63;2.40;;;23.80;99.90;;;;;;5051669;28;20025;-67
2021/07/26 05:18:07;;;;;;;3.65;2.58;;;23.80;99.90;;;;;;5051624;28;20028;-67
2021/07/26 05:20:33;;;;;;;2.30;2.10;;;23.80;99.90;;;;;;5051286;28;20043;-67
2021/07/26 05:22:59;;;;;;;3.00;2.70;;;23.80;99.90;;;;;;5051515;28;20032;-66
2021/07/26 05:25:25;;;;;;;2.83;2.30;;;23.90;99.90;;;;;;5051353;28;20385;-66
2021/07/26 05:27:51;;;;;;;3.30;2.60;;;23.90;99.90;;;;;;5051826;28;20025;-67
2021/07/26 05:30:16;;;;;;;2.88;2.40;;;23.90;99.90;;;;;;5050748;28;20028;-67
2021/07/26 05:32:42;;;;;;;3.15;2.45;;;23.90;99.90;;;;;;5051498;28;20362;-67
2021/07/26 05:35:08;;;;;;;3.22;2.53;;;23.90;99.90;;;;;;5051416;28;20037;-67
2021/07/26 05:37:34;;;;;;;3.00;2.45;;;23.80;99.90;;;;;;5050336;28;20025;-67
2021/07/26 05:40:01;;;;;;;3.97;2.63;;;23.80;99.90;;;;;;5051420;28;20025;-67
2021/07/26 05:42:26;;;;;;;3.78;2.60;;;23.80;99.90;;;;;;5051156;28;20025;-67
2021/07/26 05:44:53;;;;;;;2.80;2.47;;;23.80;99.90;;;;;;5051061;28;20434;-67
2021/07/26 05:47:19;;;;;;;2.60;2.20;;;23.80;99.90;;;;;;5050895;28;20434;-67
2021/07/26 05:49:44;;;;;;;2.85;2.35;;;23.80;99.90;;;;;;5051364;28;20063;-67
2021/07/26 05:52:10;;;;;;;3.45;2.45;;;23.80;99.90;;;;;;5051418;28;20074;-67
2021/07/26 05:54:35;;;;;;;3.20;2.28;;;23.80;99.90;;;;;;5051024;28;20488;-67
2021/07/26 05:57:07;;;;;;;2.60;2.40;;;23.80;99.90;;;;;;5051410;28;20428;-67
2021/07/26 05:59:33;;;;;;;3.22;2.55;;;23.80;99.90;;;;;;5050200;28;20135;-67
2021/07/26 06:01:59;;;;;;;2.80;2.42;;;23.80;99.90;;;;;;5050794;28;20025;-67
2021/07/26 06:04:24;;;;;;;3.00;2.33;;;23.80;99.90;;;;;;5050318;28;20120;-67
2021/07/26 06:06:55;;;;;;;3.25;2.65;;;23.80;99.90;;;;;;5049722;28;20507;-69
2021/07/26 06:09:22;;;;;;;2.38;2.08;;;23.80;99.90;;;;;;5050665;28;20046;-68
2021/07/26 06:11:49;;;;;;;2.95;2.50;;;23.80;99.90;;;;;;5050913;28;20032;-66
2021/07/26 06:14:15;;;;;;;2.78;2.13;;;23.70;99.90;;;;;;5050561;28;20385;-68
2021/07/26 06:16:45;;;;;;;8.63;6.22;;;23.80;99.90;;;;;;5050628;28;20021;-68
2021/07/26 06:19:11;;;;;;;13.73;9.30;;;23.80;99.90;;;;;;5050465;28;20384;-68
2021/07/26 06:21:57;;;;;;;15.95;11.32;;;23.70;99.90;;;;;;5051260;28;20036;-70
2021/07/26 06:24:24;;;;;;;17.63;12.80;;;23.60;99.90;;;;;;5054773;28;20083;-68
2021/07/26 06:26:57;;;;;;;20.10;13.38;;;23.40;99.90;;;;;;5054356;28;20100;-67
2021/07/26 06:29:24;;;;;;;17.27;12.23;;;23.40;99.90;;;;;;5053816;28;20033;-67
2021/07/26 06:31:50;;;;;;;17.75;12.63;;;23.40;99.90;;;;;;5054571;28;20106;-67
2021/07/26 06:34:15;;;;;;;17.08;12.75;;;23.30;99.90;;;;;;5053875;28;20029;-68
2021/07/26 06:36:41;;;;;;;18.23;11.63;;;23.30;99.90;;;;;;5054620;28;20021;-68
2021/07/26 06:39:09;;;;;;;17.35;11.82;;;23.30;99.90;;;;;;5054065;28;20035;-67
2021/07/26 06:41:35;;;;;;;18.08;11.35;;;23.30;99.90;;;;;;5053937;28;20025;-68
2021/07/26 06:44:00;;;;;;;16.52;12.30;;;23.50;99.90;;;;;;5053524;28;20098;-68
2021/07/26 06:46:26;;;;;;;19.15;12.43;;;23.40;99.90;;;;;;5054013;28;20446;-68
2021/07/26 06:48:52;;;;;;;19.13;12.95;;;23.50;99.90;;;;;;5054263;28;20033;-67
2021/07/26 06:51:17;;;;;;;17.60;12.75;;;23.50;99.90;;;;;;5053133;28;20481;-68
2021/07/26 06:53:43;;;;;;;18.70;12.73;;;23.50;99.90;;;;;;5051213;28;20032;-68
2021/07/26 06:56:10;;;;;;;15.55;11.10;;;23.40;99.90;;;;;;5053037;28;20489;-68
2021/07/26 06:58:37;;;;;;;17.08;10.63;;;23.50;99.90;;;;;;5053416;28;20373;-67
2021/07/26 07:01:07;;;;;;;16.63;10.88;;;23.60;99.90;;;;;;5053653;28;20025;-67
2021/07/26 07:03:33;;;;;;;16.45;10.50;;;23.60;99.90;;;;;;5054011;28;20452;-68
2021/07/26 07:06:10;;;;;;;15.45;10.10;;;23.60;99.90;;;;;;5052039;28;20033;-69
2021/07/26 07:08:37;;;;;;;15.20;9.60;;;23.60;99.90;;;;;;5052432;28;20032;-67
2021/07/26 07:11:07;;;;;;;17.08;10.00;;;23.60;99.90;;;;;;5052460;28;20029;-69
2021/07/26 07:13:34;;;;;;;14.40;9.48;;;23.70;99.90;;;;;;5052069;28;20166;-69
2021/07/26 07:16:00;;;;;;;14.63;9.75;;;23.70;99.90;;;;;;5052203;28;20385;-69
2021/07/26 07:18:26;;;;;;;13.90;9.63;;;23.70;99.90;;;;;;5052290;28;20027;-69
2021/07/26 07:20:52;;;;;;;13.43;8.68;;;23.70;99.90;;;;;;5050312;28;20025;-68
2021/07/26 07:23:18;;;;;;;12.63;9.30;;;23.70;99.90;;;;;;5052447;28;20413;-67
2021/07/26 07:25:43;;;;;;;13.95;9.40;;;23.70;99.90;;;;;;5051821;28;20021;-67
2021/07/26 07:28:09;;;;;;;16.27;9.65;;;23.70;99.90;;;;;;5052871;28;20096;-68
2021/07/26 07:30:35;;;;;;;12.82;8.85;;;23.50;99.90;;;;;;5053211;28;20035;-67
2021/07/26 07:33:00;;;;;;;17.05;9.65;;;23.50;99.90;;;;;;5052148;28;20028;-67
2021/07/26 07:35:27;;;;;;;14.02;8.60;;;23.60;99.90;;;;;;5053119;28;20493;-68
2021/07/26 07:37:53;;;;;;;13.63;8.18;;;23.60;99.90;;;;;;5053070;28;20488;-64
2021/07/26 07:40:19;;;;;;;12.90;7.90;;;23.60;99.90;;;;;;5053150;28;20029;-67
2021/07/26 07:42:44;;;;;;;12.00;7.55;;;23.70;99.90;;;;;;5053635;28;20039;-66
2021/07/26 07:45:11;;;;;;;10.75;7.55;;;23.80;99.90;;;;;;5053329;28;20044;-66
2021/07/26 07:47:38;;;;;;;10.77;7.03;;;23.80;99.90;;;;;;5052821;28;20025;-67
2021/07/26 07:50:05;;;;;;;12.35;6.82;;;23.90;99.90;;;;;;5053276;28;20064;-69
2021/07/26 07:52:31;;;;;;;10.70;6.03;;;24.00;99.90;;;;;;5052845;28;20507;-67
2021/07/26 07:54:56;;;;;;;7.57;5.43;;;24.00;99.90;;;;;;5053443;28;20521;-69
2021/07/26 07:57:24;;;;;;;7.88;5.57;;;24.10;99.90;;;;;;5052987;28;20101;-69
2021/07/26 07:59:50;;;;;;;10.40;5.90;;;24.10;99.90;;;;;;5053299;28;20057;-68
2021/07/26 08:02:17;;;;;;;7.78;5.18;;;24.00;99.90;;;;;;5052864;28;20440;-69
2021/07/26 08:04:43;;;;;;;9.82;5.43;;;24.10;99.90;;;;;;5052756;28;20033;-70
2021/07/26 08:07:09;;;;;;;5.90;4.72;;;24.20;99.90;;;;;;5053002;28;20033;-70
2021/07/26 08:09:34;;;;;;;6.35;4.40;;;24.50;99.90;;;;;;5052662;28;20036;-70
2021/07/26 08:12:00;;;;;;;7.03;4.38;;;24.60;99.90;;;;;;5052888;28;20048;-70
2021/07/26 08:14:25;;;;;;;8.40;4.32;;;24.70;99.90;;;;;;5052980;28;20377;-70
2021/07/26 08:16:51;;;;;;;6.28;4.32;;;24.70;99.90;;;;;;5052968;28;20112;-70
2021/07/26 08:19:18;;;;;;;7.90;4.30;;;24.70;99.90;;;;;;5052839;28;20504;-69
2021/07/26 08:21:44;;;;;;;6.95;4.00;;;24.90;99.90;;;;;;5052615;28;20033;-70
2021/07/26 08:24:10;;;;;;;6.80;4.38;;;25.00;99.90;;;;;;5052794;28;20037;-70
2021/07/26 08:26:35;;;;;;;6.88;4.30;;;25.00;99.90;;;;;;5052340;28;20025;-70
2021/07/26 08:29:01;;;;;;;7.78;4.38;;;25.00;99.90;;;;;;5052565;28;20027;-69
2021/07/26 08:31:26;;;;;;;6.90;3.70;;;25.00;99.90;;;;;;5052584;28;20017;-69
2021/07/26 08:33:52;;;;;;;4.30;3.65;;;25.10;99.90;;;;;;5052457;28;20525;-70
2021/07/26 08:36:17;;;;;;;5.40;4.28;;;25.10;99.90;;;;;;5052054;28;20465;-69
2021/07/26 08:38:43;;;;;;;4.13;3.70;;;25.20;99.90;;;;;;5052399;28;20029;-70
2021/07/26 08:41:09;;;;;;;6.07;3.80;;;25.20;99.90;;;;;;5052326;28;20059;-70
2021/07/26 08:43:35;;;;;;;5.60;3.85;;;25.30;99.90;;;;;;5051605;28;20457;-70
2021/07/26 08:46:01;;;;;;;7.32;4.20;;;25.30;99.90;;;;;;5051233;28;20029;-70
2021/07/26 08:48:30;;;;;;;5.55;3.63;;;25.30;99.90;;;;;;5052283;28;20098;-70
2021/07/26 08:50:57;;;;;;;4.85;3.78;;;25.40;99.90;;;;;;5052427;28;20029;-70
2021/07/26 08:53:25;;;;;;;5.25;3.53;;;25.40;99.90;;;;;;5051878;28;20087;-70
2021/07/26 08:55:50;;;;;;;4.82;3.67;;;25.30;99.90;;;;;;5052080;28;20481;-69
2021/07/26 08:58:16;;;;;;;4.70;3.50;;;25.30;99.90;;;;;;5051852;28;20024;-69
2021/07/26 09:00:42;;;;;;;4.00;3.55;;;25.30;99.90;;;;;;5052121;28;20021;-69
2021/07/26 09:03:08;;;;;;;3.95;3.42;;;25.30;99.90;;;;;;5052053;28;20047;-70
2021/07/26 09:05:34;;;;;;;4.80;3.90;;;25.30;99.90;;;;;;5051558;28;20481;-70
2021/07/26 09:08:02;;;;;;;5.20;3.88;;;25.30;99.90;;;;;;5052347;28;20036;-71
2021/07/26 09:10:33;;;;;;;5.75;3.55;;;25.30;99.90;;;;;;5051847;28;20025;-70
2021/07/26 09:12:59;;;;;;;5.38;3.83;;;25.20;99.90;;;;;;5052132;28;20032;-70
2021/07/26 09:15:28;;;;;;;4.72;3.55;;;25.30;99.90;;;;;;5051505;28;20029;-71
2021/07/26 09:17:56;;;;;;;4.18;3.75;;;25.30;99.90;;;;;;5051667;28;20013;-70
2021/07/26 09:20:28;;;;;;;4.88;3.33;;;25.30;99.90;;;;;;5051448;28;20173;-71
2021/07/26 09:22:57;;;;;;;4.20;3.65;;;25.30;99.90;;;;;;5051508;28;20370;-70
2021/07/26 09:25:29;;;;;;;4.00;3.65;;;25.40;99.90;;;;;;5051221;28;20622;-70
2021/07/26 09:28:02;;;;;;;5.63;3.72;;;25.40;99.90;;;;;;5051481;28;20124;-71
2021/07/26 09:30:51;;;;;;;4.57;3.92;;;25.40;99.90;;;;;;5051534;28;20499;-70
2021/07/26 09:33:23;;;;;;;4.63;3.58;;;25.40;99.90;;;;;;5051370;28;20065;-71
2021/07/26 09:36:07;;;;;;;3.83;3.35;;;25.50;99.90;;;;;;5051431;28;20036;-70
2021/07/26 09:38:33;;;;;;;3.97;3.45;;;25.40;99.90;;;;;;5051309;28;20056;-70
2021/07/26 09:41:01;;;;;;;4.18;3.40;;;25.50;99.90;;;;;;5051596;28;20111;-71
2021/07/26 09:43:26;;;;;;;4.25;3.85;;;25.50;99.90;;;;;;5051220;28;20036;-71
2021/07/26 09:45:56;;;;;;;4.95;3.70;;;25.50;99.90;;;;;;5051330;28;20385;-72
2021/07/26 09:48:27;;;;;;;3.80;3.28;;;25.50;99.90;;;;;;5051335;28;20107;-71
2021/07/26 09:50:54;;;;;;;4.30;3.90;;;25.60;99.90;;;;;;5051459;28;20033;-70
2021/07/26 09:53:21;;;;;;;5.68;3.42;;;25.60;99.90;;;;;;5050515;28;20087;-69
2021/07/26 09:55:50;;;;;;;3.58;3.28;;;25.60;99.90;;;;;;5053176;28;20029;-68
2021/07/26 09:58:17;;;;;;;4.93;3.30;;;25.60;99.90;;;;;;5055207;28;20013;-69
2021/07/26 10:00:44;;;;;;;5.07;3.50;;;25.60;99.90;;;;;;5055276;28;20037;-70
2021/07/26 10:03:15;;;;;;;3.80;3.25;;;25.70;99.90;;;;;;5055200;28;20025;-70
2021/07/26 10:05:42;;;;;;;3.83;3.20;;;25.70;99.90;;;;;;5054444;28;20029;-70
2021/07/26 10:08:09;;;;;;;3.38;3.08;;;25.80;99.90;;;;;;5054958;28;20037;-70
2021/07/26 10:10:40;;;;;;;3.10;2.80;;;25.50;99.90;;;;;;5053750;28;20028;-69
2021/07/26 10:13:08;;;;;;;3.15;2.85;;;25.40;99.90;;;;;;5055068;28;20488;-70
2021/07/26 10:15:34;;;;;;;3.30;2.85;;;25.30;99.90;;;;;;5054759;28;20029;-71
2021/07/26 10:18:00;;;;;;;3.35;2.90;;;25.20;99.90;;;;;;5055295;28;20579;-70
2021/07/26 10:20:28;;;;;;;4.13;2.95;;;25.20;99.90;;;;;;5054702;28;20168;-70
2021/07/26 10:23:08;;;;;;;3.35;2.70;;;25.10;99.90;;;;;;5054935;28;20484;-70
2021/07/26 10:25:44;;;;;;;4.05;2.78;;;25.10;99.90;;;;;;5055198;28;20093;-71
2021/07/26 10:28:22;;;;;;;2.38;2.17;;;25.00;99.90;;;;;;5055173;28;20032;-70
2021/07/26 10:30:48;;;;;;;3.00;2.50;;;25.00;99.90;;;;;;5054697;28;20080;-72
2021/07/26 10:33:14;;;;;;;4.35;2.72;;;25.00;99.90;;;;;;5054586;28;20025;-71
2021/07/26 10:35:47;;;;;;;2.67;2.45;;;25.00;99.90;;;;;;5054827;28;20112;-71
2021/07/26 10:38:12;;;;;;;2.92;2.67;;;24.90;99.90;;;;;;5046476;28;20481;-71
2021/07/26 10:40:42;;;;;;;7.43;3.25;;;24.90;99.90;;;;;;5054633;28;20037;-71
2021/07/26 10:43:13;;;;;;;3.38;2.42;;;24.90;99.90;;;;;;5054441;28;20114;-72
2021/07/26 10:45:55;;;;;;;3.10;2.70;;;24.90;99.90;;;;;;5054292;28;20036;-70
2021/07/26 10:48:27;;;;;;;5.82;3.15;;;24.90;99.90;;;;;;5054407;28;20028;-69
2021/07/26 10:50:57;;;;;;;3.90;2.65;;;24.90;99.90;;;;;;5054330;28;20374;-70
2021/07/26 10:53:34;;;;;;;3.25;2.95;;;24.80;99.90;;;;;;5053844;28;20500;-69
2021/07/26 10:56:07;;;;;;;3.30;2.50;;;24.70;99.90;;;;;;5054567;28;20109;-69
2021/07/26 10:58:38;;;;;;;4.03;2.70;;;24.70;99.90;;;;;;5054314;28;20735;-74
2021/07/26 11:01:22;;;;;;;3.80;3.00;;;24.80;99.90;;;;;;5054589;28;20044;-74
2021/07/26 11:03:49;;;;;;;3.53;2.70;;;24.70;99.90;;;;;;5053818;28;20197;-73
2021/07/26 11:06:34;;;;;;;3.25;2.78;;;24.80;99.90;;;;;;5033653;28;20045;-73
2021/07/26 11:09:18;;;;;;;4.53;2.40;;;24.80;99.90;;;;;;5034429;28;20381;-71
2021/07/26 11:11:44;;;;;;;4.55;2.50;;;24.80;99.90;;;;;;5041662;28;20035;-71
2021/07/26 11:14:11;;;;;;;3.70;2.80;;;24.70;99.90;;;;;;5034527;28;20101;-72
2021/07/26 11:16:51;;;;;;;3.50;2.72;;;24.70;99.90;;;;;;5053050;28;20438;-72
2021/07/26 11:19:38;;;;;;;3.03;2.58;;;24.70;99.90;;;;;;5051751;28;20060;-71
2021/07/26 11:22:27;;;;;;;3.85;2.70;;;24.70;99.90;;;;;;5053993;28;20508;-72
2021/07/26 11:24:54;;;;;;;3.30;2.72;;;24.70;99.90;;;;;;5053494;28;20033;-72
2021/07/26 11:27:32;;;;;;;4.05;2.78;;;24.70;99.90;;;;;;5053117;28;20100;-72
2021/07/26 11:29:58;;;;;;;4.00;2.42;;;24.70;99.90;;;;;;5053854;28;20056;-72
2021/07/26 11:32:25;;;;;;;4.95;2.72;;;24.70;99.90;;;;;;5052757;28;20029;-74
2021/07/26 11:34:54;;;;;;;3.15;2.70;;;24.70;99.90;;;;;;5053579;28;20036;-74
2021/07/26 11:37:29;;;;;;;3.55;2.72;;;24.70;99.90;;;;;;5053295;28;20024;-73
2021/07/26 11:39:59;;;;;;;4.38;2.78;;;24.60;99.90;;;;;;5052872;28;20110;-69
2021/07/26 11:42:30;;;;;;;3.53;2.28;;;24.60;99.90;;;;;;5053021;28;20163;-71
2021/07/26 11:44:56;;;;;;;3.30;2.15;;;24.60;99.90;;;;;;5053349;28;20040;-70
2021/07/26 11:47:34;;;;;;;3.22;2.00;;;24.60;99.90;;;;;;5052755;28;20028;-70
2021/07/26 11:50:14;;;;;;;2.65;2.17;;;24.60;99.90;;;;;;5053361;28;20036;-69
2021/07/26 11:52:53;;;;;;;2.50;1.92;;;24.60;99.90;;;;;;5052876;28;20040;-70
2021/07/26 11:55:19;;;;;;;2.90;1.90;;;24.60;99.90;;;;;;5051811;28;20423;-69
2021/07/26 11:57:58;;;;;;;3.97;1.90;;;24.50;99.90;;;;;;5051733;28;20507;-70
2021/07/26 12:00:44;;;;;;;2.75;2.10;;;24.50;99.90;;;;;;5051522;28;20044;-70
2021/07/26 12:03:11;;;;;;;2.10;1.52;;;24.60;99.90;;;;;;5049149;28;20485;-70
2021/07/26 12:05:36;;;;;;;3.45;2.25;;;24.60;99.90;;;;;;5051684;28;20051;-71
2021/07/26 12:08:16;;;;;;;2.83;2.22;;;24.60;99.90;;;;;;5052022;28;20509;-69
2021/07/26 12:10:42;;;;;;;3.13;2.15;;;24.70;99.90;;;;;;5032840;28;20553;-73
2021/07/26 12:13:09;;;;;;;2.90;2.13;;;24.60;99.90;;;;;;5046960;28;20044;-70
2021/07/26 12:15:36;;;;;;;3.78;2.50;;;24.60;99.90;;;;;;5052743;28;20136;-73
2021/07/26 12:18:07;;;;;;;3.08;2.33;;;24.60;99.90;;;;;;5052109;28;20025;-77
2021/07/26 12:20:39;;;;;;;3.15;1.90;;;24.70;99.90;;;;;;5052641;28;20033;-73
2021/07/26 12:23:21;;;;;;;3.50;2.10;;;24.80;99.90;;;;;;5052781;28;20056;-75
2021/07/26 12:25:51;;;;;;;5.45;2.28;;;25.00;99.90;;;;;;5052686;28;20489;-72
2021/07/26 12:28:18;;;;;;;5.03;2.00;;;25.10;99.90;;;;;;5052413;28;20025;-73
2021/07/26 12:30:46;;;;;;;2.97;2.30;;;25.30;99.90;;;;;;5052586;28;20497;-71
2021/07/26 12:33:25;;;;;;;4.13;2.45;;;25.40;99.90;;;;;;5052355;28;20025;-74
2021/07/26 12:35:50;;;;;;;2.35;1.80;;;25.50;99.90;;;;;;5052590;28;20025;-72
2021/07/26 12:38:20;;;;;;;2.40;1.90;;;25.50;99.90;;;;;;5052321;28;20021;-75
2021/07/26 12:41:12;;;;;;;3.40;2.20;;;25.50;99.90;;;;;;5052314;28;20033;-73
2021/07/26 12:43:39;;;;;;;2.30;2.00;;;25.50;99.90;;;;;;5051839;28;20063;-72
2021/07/26 12:46:06;;;;;;;4.88;1.95;;;25.50;99.90;;;;;;5052435;28;20029;-75
2021/07/26 12:48:33;;;;;;;2.10;1.85;;;25.40;99.90;;;;;;5051960;28;20378;-74
2021/07/26 12:51:00;;;;;;;2.20;2.00;;;25.30;99.90;;;;;;5052154;28;20021;-73